sensor_id;sensor_type;location;lat;lon;timestamp;P1;P2;P0
45312;PMS7003;68267;51.540;5.854;2023-12-20T00:08:14;17.17;15.81;13.74
45312;PMS7003;68267;51.540;5.854;2023-12-20T00:21:34;16.57;15.16;13.63
45312;PMS7003;68267;51.540;5.854;2023-12-20T00:34:53;16.09;16.14;13.63
45312;PMS7003;68267;51.540;5.854;2023-12-20T00:48:13;10.69;11.89;10.69
45312;PMS7003;68267;51.540;5.854;2023-12-20T01:01:33;12.13;9.6;6.66
45312;PMS7003;68267;51.540;5.854;2023-12-20T01:14:52;9.13;8.51;5.57
45312;PMS7003;68267;51.540;5.854;2023-12-20T01:28:14;14.41;8.62;5.35
45312;PMS7003;68267;51.540;5.854;2023-12-20T01:41:34;11.29;7.31;4.8
45312;PMS7003;68267;51.540;5.854;2023-12-20T01:54:54;3.48;6.44;3.82
45312;PMS7003;68267;51.540;5.854;2023-12-20T02:08:14;29.17;6.33;3.5
45312;PMS7003;68267;51.540;5.854;2023-12-20T02:21:33;13.21;5.79;3.28
45312;PMS7003;68267;51.540;5.854;2023-12-20T02:34:53;6.61;6.77;3.28
45312;PMS7003;68267;51.540;5.854;2023-12-20T02:48:13;8.89;6.11;3.5
45312;PMS7003;68267;51.540;5.854;2023-12-20T03:01:32;12.13;6.0;3.61
45312;PMS7003;68267;51.540;5.854;2023-12-20T03:14:52;4.09;6.99;3.82
45312;PMS7003;68267;51.540;5.854;2023-12-20T03:28:11;9.97;7.2;3.61
45312;PMS7003;68267;51.540;5.854;2023-12-20T03:41:31;14.41;7.2;3.61
45312;PMS7003;68267;51.540;5.854;2023-12-20T03:54:51;14.77;5.9;3.39
45312;PMS7003;68267;51.540;5.854;2023-12-20T04:08:10;19.57;6.99;3.71
45312;PMS7003;68267;51.540;5.854;2023-12-20T04:21:30;14.89;6.66;3.61
45312;PMS7003;68267;51.540;5.854;2023-12-20T04:34:50;6.97;7.64;4.15
45312;PMS7003;68267;51.540;5.854;2023-12-20T04:48:09;12.37;6.99;4.8
45312;PMS7003;68267;51.540;5.854;2023-12-20T05:01:32;10.09;8.73;5.57
45312;PMS7003;68267;51.540;5.854;2023-12-20T05:14:54;7.93;10.47;6.22
45312;PMS7003;68267;51.540;5.854;2023-12-20T05:28:13;9.61;9.06;6.0
45312;PMS7003;68267;51.540;5.854;2023-12-20T05:41:33;9.61;8.73;5.46
45312;PMS7003;68267;51.540;5.854;2023-12-20T05:54:55;8.17;8.84;5.13
45312;PMS7003;68267;51.540;5.854;2023-12-20T06:08:15;12.25;8.73;5.57
45312;PMS7003;68267;51.540;5.854;2023-12-20T06:21:37;13.81;8.51;5.13
45312;PMS7003;68267;51.540;5.854;2023-12-20T06:34:56;10.81;9.82;6.11
45312;PMS7003;68267;51.540;5.854;2023-12-20T06:48:16;10.33;8.62;5.68
45312;PMS7003;68267;51.540;5.854;2023-12-20T07:01:38;17.89;8.29;4.91
45312;PMS7003;68267;51.540;5.854;2023-12-20T07:14:58;8.65;8.08;4.8
45312;PMS7003;68267;51.540;5.854;2023-12-20T07:28:20;9.73;6.66;4.48
45312;PMS7003;68267;51.540;5.854;2023-12-20T07:41:40;4.93;7.75;3.93
45312;PMS7003;68267;51.540;5.854;2023-12-20T07:54:59;3.85;6.77;3.71
45312;PMS7003;68267;51.540;5.854;2023-12-20T08:08:19;16.69;7.31;3.39
45312;PMS7003;68267;51.540;5.854;2023-12-20T08:21:39;7.93;5.46;2.95
45312;PMS7003;68267;51.540;5.854;2023-12-20T08:34:58;8.29;6.0;3.39
45312;PMS7003;68267;51.540;5.854;2023-12-20T08:48:18;8.41;6.77;3.28
45312;PMS7003;68267;51.540;5.854;2023-12-20T09:01:37;3.12;6.11;3.5
45312;PMS7003;68267;51.540;5.854;2023-12-20T09:15:00;7.69;7.97;3.82
45312;PMS7003;68267;51.540;5.854;2023-12-20T09:28:19;9.49;7.31;3.82
45312;PMS7003;68267;51.540;5.854;2023-12-20T09:41:39;5.53;6.77;4.37
45312;PMS7003;68267;51.540;5.854;2023-12-20T09:54:59;9.49;6.33;3.82
45312;PMS7003;68267;51.540;5.854;2023-12-20T10:08:18;4.69;7.53;3.93
45312;PMS7003;68267;51.540;5.854;2023-12-20T10:21:40;11.77;6.66;4.48
45312;PMS7003;68267;51.540;5.854;2023-12-20T10:35:00;56.3;6.77;4.15
45312;PMS7003;68267;51.540;5.854;2023-12-20T10:48:20;13.33;5.79;3.82
45312;PMS7003;68267;51.540;5.854;2023-12-20T11:01:39;8.17;7.64;4.8
45312;PMS7003;68267;51.540;5.854;2023-12-20T11:14:59;18.85;7.64;4.8
45312;PMS7003;68267;51.540;5.854;2023-12-20T11:28:21;4.69;7.53;4.8
45312;PMS7003;68267;51.540;5.854;2023-12-20T11:41:41;14.41;8.08;5.24
45312;PMS7003;68267;51.540;5.854;2023-12-20T11:55:00;12.25;9.6;4.91
45312;PMS7003;68267;51.540;5.854;2023-12-20T12:08:20;6.37;9.06;6.44
45312;PMS7003;68267;51.540;5.854;2023-12-20T12:21:40;10.57;9.38;6.77
45312;PMS7003;68267;51.540;5.854;2023-12-20T12:34:59;11.77;9.93;7.64
45312;PMS7003;68267;51.540;5.854;2023-12-20T12:48:19;8.29;10.8;8.51
45312;PMS7003;68267;51.540;5.854;2023-12-20T13:01:39;11.65;13.09;10.04
45312;PMS7003;68267;51.540;5.854;2023-12-20T13:14:58;11.89;12.98;10.15
45312;PMS7003;68267;51.540;5.854;2023-12-20T13:28:18;14.05;13.53;10.26
45312;PMS7003;68267;51.540;5.854;2023-12-20T13:41:38;17.17;14.72;11.02
45312;PMS7003;68267;51.540;5.854;2023-12-20T13:54:57;14.41;12.22;9.82
45312;PMS7003;68267;51.540;5.854;2023-12-20T14:08:17;12.97;11.24;9.27
45312;PMS7003;68267;51.540;5.854;2023-12-20T14:21:36;15.61;12.33;8.51
45312;PMS7003;68267;51.540;5.854;2023-12-20T14:34:56;9.97;10.69;7.97
45312;PMS7003;68267;51.540;5.854;2023-12-20T14:48:16;9.49;9.17;6.77
45312;PMS7003;68267;51.540;5.854;2023-12-20T15:01:36;9.49;10.26;6.88
45312;PMS7003;68267;51.540;5.854;2023-12-20T15:14:55;10.45;9.17;6.77
45312;PMS7003;68267;51.540;5.854;2023-12-20T15:28:15;34.34;10.15;6.99
45312;PMS7003;68267;51.540;5.854;2023-12-20T15:41:34;9.37;10.91;7.42
45312;PMS7003;68267;51.540;5.854;2023-12-20T15:54:54;10.69;11.56;9.06
45312;PMS7003;68267;51.540;5.854;2023-12-20T16:08:14;16.21;11.24;8.84
45312;PMS7003;68267;51.540;5.854;2023-12-20T16:21:33;11.05;11.78;8.73
45312;PMS7003;68267;51.540;5.854;2023-12-20T16:34:53;9.01;11.45;8.51
45312;PMS7003;68267;51.540;5.854;2023-12-20T16:48:13;13.69;10.47;8.18
45312;PMS7003;68267;51.540;5.854;2023-12-20T17:01:32;15.61;9.49;7.42
45312;PMS7003;68267;51.540;5.854;2023-12-20T17:14:52;8.17;9.71;7.09
45312;PMS7003;68267;51.540;5.854;2023-12-20T17:28:14;9.61;10.36;7.97
45312;PMS7003;68267;51.540;5.854;2023-12-20T17:41:34;10.33;11.89;9.27
45312;PMS7003;68267;51.540;5.854;2023-12-20T17:54:53;12.61;12.98;10.69
45312;PMS7003;68267;51.540;5.854;2023-12-20T18:08:13;17.89;14.94;11.56
45312;PMS7003;68267;51.540;5.854;2023-12-20T18:21:33;13.21;15.27;13.2
45312;PMS7003;68267;51.540;5.854;2023-12-20T18:34:55;12.49;14.62;12.44
45312;PMS7003;68267;51.540;5.854;2023-12-20T18:48:14;12.37;13.42;10.8
45312;PMS7003;68267;51.540;5.854;2023-12-20T19:01:34;11.17;13.42;10.91
45312;PMS7003;68267;51.540;5.854;2023-12-20T19:14:54;10.57;12.87;10.91
45312;PMS7003;68267;51.540;5.854;2023-12-20T19:28:13;14.29;14.4;12.44
45312;PMS7003;68267;51.540;5.854;2023-12-20T19:41:35;11.89;14.07;12.11
45312;PMS7003;68267;51.540;5.854;2023-12-20T19:54:55;14.05;14.72;12.87
45312;PMS7003;68267;51.540;5.854;2023-12-20T20:08:15;9.73;12.11;11.35
45312;PMS7003;68267;51.540;5.854;2023-12-20T20:21:35;13.57;12.33;11.35
45312;PMS7003;68267;51.540;5.854;2023-12-20T20:34:54;15.73;13.09;10.69
45312;PMS7003;68267;51.540;5.854;2023-12-20T20:48:16;9.25;11.67;10.8
45312;PMS7003;68267;51.540;5.854;2023-12-20T21:01:36;10.81;13.09;11.67
45312;PMS7003;68267;51.540;5.854;2023-12-20T21:14:56;12.37;14.51;13.63
45312;PMS7003;68267;51.540;5.854;2023-12-20T21:28:15;16.81;17.23;15.49
45312;PMS7003;68267;51.540;5.854;2023-12-20T21:41:35;16.57;17.56;15.6
45312;PMS7003;68267;51.540;5.854;2023-12-20T21:54:57;17.65;18.76;16.9
45312;PMS7003;68267;51.540;5.854;2023-12-20T22:08:17;17.29;18.98;17.67
45312;PMS7003;68267;51.540;5.854;2023-12-20T22:21:36;17.29;17.99;16.8
45312;PMS7003;68267;51.540;5.854;2023-12-20T22:34:56;16.93;18.65;17.89
45312;PMS7003;68267;51.540;5.854;2023-12-20T22:48:16;17.29;18.98;17.56
45312;PMS7003;68267;51.540;5.854;2023-12-20T23:01:38;17.29;18.98;17.56
45312;PMS7003;68267;51.540;5.854;2023-12-20T23:14:57;17.77;19.41;17.12
45312;PMS7003;68267;51.540;5.854;2023-12-20T23:28:17;18.73;19.3;17.89
45312;PMS7003;68267;51.540;5.854;2023-12-20T23:41:37;17.29;18.98;17.45
45312;PMS7003;68267;51.540;5.854;2023-12-20T23:54:56;14.89;16.8;16.14
